Nearby METAR Reports

Actuele Vliegveldwaarnemingen NL (METAR).Zie KNMI uitleg METAR hier

EHAM - Amsterdam/Schiph, Netherlands
Distance from station: ONO 18km
Updated: 23/07/2018 15:25
Helder
Helder
 Wind van varies
Wind: varies 7 km/h
Temperatuur: 28°C
Heat Index: 28°C
Dauwpunt: 16°C
Vochtigheid: 48%
Barometer: 1016 hPa
Overzicht: Helder
Visibility: greater than 10 km
2018/07/23 13:25 EHAM 231325Z VRB04KT CAVOK 28/16 Q1016 NOSIG
EHKD - DE KOOY/DE KOOY
Updated: 23/07/2018 15:55
Helder
Helder
 Wind van WNW
Wind: WNW 15 km/h
Temperatuur: 25°C
Dauwpunt: 15°C
Vochtigheid: 54%
Barometer: 1017 hPa
Clouds: Helder
Visibility: 10 km
2018/07/23 13:55 EHKD 231355Z AUTO 29008KT 240V330 9999 NCD 25/15 Q1017 BLU 27008KT CAVOK
 
EHLW - LEEUWARDEN/LEEUWARDEN
Updated: 23/07/2018 15:25
Helder
Helder
 Wind van WNW
Wind: WNW 11 km/h
Temperatuur: 26°C
Dauwpunt: 17°C
Vochtigheid: 58%
Barometer: 1017 hPa
Clouds: Helder
Visibility: 10 km
2018/07/23 13:25 EHLW 231325Z AUTO 29006KT 170V290 9999 NCD 26/17 Q1017 BLU 24004KT 9999 FEW035 RMK R23
EHVK - VOLKEL/VOLKEL
Updated: 23/07/2018 15:41
Gedeeltelijk bewolkt
Gedeeltelijk bewolkt
 Wind van W
Wind: W 7 km/h
Temperatuur: 29°C
Heat Index: 29°C
Dauwpunt: 15°C
Vochtigheid: 43%
Barometer: 1016 hPa
Clouds: Gedeeltelijk bewolkt
Visibility: 10 km
Cloud details: Gedeeltelijk bewolkt 1615 m
2018/07/23 13:41 EHVK 231341Z AUTO 28004KT 010V140 9999 SCT053 29/15 Q1016 BLU VRB03KT CAVOK
 
EHFS - VLISSINGEN
Updated: 23/07/2018 15:25
Gedeeltelijk bewolkt
Gedeeltelijk bewolkt
 Wind van WNW
Wind: WNW 15 km/h
Temperatuur: 27°C
Heat Index: 27°C
Dauwpunt: 14°C
Vochtigheid: 45%
Barometer: 1017 hPa
Clouds: Gedeeltelijk bewolkt
Visibility: 10 km
2018/07/23 13:25 EHFS 231325Z AUTO 30008KT 260V330 9999 NSC 27/14 Q1017 W///H///
EHEH - EINDHOVEN/EINDHOVEN
Updated: 23/07/2018 15:25
Zwaar bewolkt
Zwaar bewolkt
 Wind van W
Wind: W 11 km/h
Temperatuur: 29°C
Heat Index: 29°C
Dauwpunt: 15°C
Vochtigheid: 43%
Barometer: 1016 hPa
Clouds: Zwaar bewolkt
Visibility: 10 km
Cloud details: Gedeeltelijk bewolkt 1585 m
Meestal bewolkt 1859 m
Zwaar bewolkt 10058 m
2018/07/23 13:25 EHEH 231325Z AUTO 28006KT 250V050 9999 SCT052 BKN061 OVC330 29/15 Q1016 BLU VRB05KT CAVOK
 
EHGR - GILZE-RIJEN/GILZE-RIJEN
Updated: 23/07/2018 15:25
Zwaar bewolkt
Zwaar bewolkt
 Wind van W
Wind: W 7 km/h
Temperatuur: 30°C
Dauwpunt: 14°C
Vochtigheid: 38%
Barometer: 1016 hPa
Clouds: Zwaar bewolkt
Visibility: 10 km
Cloud details: Zwaar bewolkt 1554 m
2018/07/23 13:25 EHGR 231325Z AUTO 28004KT 280V040 9999 OVC051 30/14 Q1016 BLU 32005KT CAVOK
EHDL - ARNHEM/DEELEN
Updated: 23/07/2018 15:25
Meestal bewolkt
Meestal bewolkt
 Wind van varies
Wind: varies 7 km/h
Temperatuur: 29°C
Heat Index: 28°C
Dauwpunt: 14°C
Vochtigheid: 40%
Barometer: 1016 hPa
Clouds: Meestal bewolkt
Visibility: 10 km
Cloud details: Meestal bewolkt 1707 m
2018/07/23 13:25 EHDL 231325Z AUTO VRB04KT 9999 BKN056 29/14 Q1016 BLU
 
EHBK - MAASTRICHT/MAASTRICHT-AACHEN
Updated: 23/07/2018 15:25
Gedeeltelijk bewolkt
Gedeeltelijk bewolkt
 Wind van W
Wind: W 7 km/h
Temperatuur: 28°C
Heat Index: 28°C
Dauwpunt: 14°C
Vochtigheid: 42%
Barometer: 1017 hPa
Clouds: Gedeeltelijk bewolkt
Visibility: 10 km
2018/07/23 13:25 EHBK 231325Z AUTO 27004KT 200V350 9999 NSC 28/14 Q1017 NOSIG